Time,TemperatureF,DewpointF,PressureIn,WindDirection,WindDirectionDegrees,WindSpeedMPH,WindSpeedGustMPH,Humidity,HourlyPrecipIn,Conditions,Clouds,dailyrainin,SoftwareType,DateUTC
2013-12-04 00:03:00,29.0,27.0,29.88,ENE,64,5.0,9.0,91,0.00,,,0.00,Meteo,2013-12-04 06:03:00,
2013-12-04 00:08:00,29.0,27.0,29.88,ENE,59,2.0,4.0,91,0.00,,,0.00,Meteo,2013-12-04 06:08:00,
2013-12-04 00:13:00,29.0,27.0,29.87,ENE,69,3.0,5.0,91,0.00,,,0.00,Meteo,2013-12-04 06:13:00,
2013-12-04 00:18:00,29.0,27.0,29.88,ENE,78,2.0,4.0,91,0.00,,,0.00,Meteo,2013-12-04 06:18:00,
2013-12-04 00:24:00,28.0,26.0,29.87,East,79,4.0,6.0,91,0.01,,,0.01,Meteo,2013-12-04 06:24:00,
2013-12-04 00:29:00,28.0,26.0,29.86,East,87,4.0,7.0,91,0.01,,,0.01,Meteo,2013-12-04 06:29:00,
2013-12-04 00:34:00,28.0,26.0,29.86,ENE,73,2.0,4.0,91,0.01,,,0.01,Meteo,2013-12-04 06:34:00,
2013-12-04 00:39:00,28.0,26.0,29.86,East,80,4.0,6.0,91,0.01,,,0.01,Meteo,2013-12-04 06:39:00,
2013-12-04 00:44:00,29.0,27.0,29.86,ENE,74,6.0,12.0,91,0.01,,,0.01,Meteo,2013-12-04 06:44:00,
2013-12-04 00:49:00,29.0,27.0,29.87,ENE,65,3.0,4.0,92,0.01,,,0.01,Meteo,2013-12-04 06:49:00,
2013-12-04 00:54:00,29.0,27.0,29.87,East,90,2.0,3.0,91,0.01,,,0.01,Meteo,2013-12-04 06:54:00,
2013-12-04 00:59:00,29.0,27.0,29.86,East,87,5.0,8.0,91,0.01,,,0.01,Meteo,2013-12-04 06:59:00,
2013-12-04 01:04:00,29.0,27.0,29.86,ENE,72,3.0,5.0,91,0.01,,,0.01,Meteo,2013-12-04 07:04:00,
2013-12-04 01:09:00,29.0,27.0,29.86,East,87,2.0,4.0,91,0.01,,,0.01,Meteo,2013-12-04 07:09:00,
2013-12-04 01:14:00,29.0,27.0,29.86,ENE,62,3.0,5.0,91,0.01,,,0.01,Meteo,2013-12-04 07:14:00,
2013-12-04 01:19:00,29.0,27.0,29.86,ENE,77,2.0,4.0,91,0.01,,,0.01,Meteo,2013-12-04 07:19:00,
2013-12-04 01:24:00,29.0,27.0,29.86,East,87,2.0,4.0,91,0.00,,,0.01,Meteo,2013-12-04 07:24:00,
2013-12-04 01:29:00,29.0,27.0,29.86,East,87,4.0,7.0,91,0.00,,,0.01,Meteo,2013-12-04 07:29:00,
2013-12-04 01:34:00,29.0,27.0,29.86,East,79,4.0,6.0,91,0.00,,,0.01,Meteo,2013-12-04 07:34:00,
2013-12-04 01:39:00,29.0,26.0,29.86,ENE,66,3.0,4.0,90,0.00,,,0.01,Meteo,2013-12-04 07:39:00,
2013-12-04 01:44:00,29.0,26.0,29.86,ENE,67,4.0,6.0,90,0.00,,,0.01,Meteo,2013-12-04 07:44:00,
2013-12-04 01:49:00,29.0,26.0,29.86,East,81,5.0,7.0,90,0.00,,,0.01,Meteo,2013-12-04 07:49:00,
2013-12-04 01:54:00,29.0,26.0,29.86,ENE,69,3.0,5.0,90,0.00,,,0.01,Meteo,2013-12-04 07:54:00,
2013-12-04 02:00:00,29.0,26.0,29.86,ENE,75,4.0,6.0,89,0.00,,,0.01,Meteo,2013-12-04 08:00:00,
2013-12-04 02:05:00,29.0,26.0,29.86,ENE,76,6.0,9.0,89,0.00,,,0.01,Meteo,2013-12-04 08:05:00,
2013-12-04 02:10:00,29.0,26.0,29.86,ENE,78,6.0,10.0,89,0.00,,,0.01,Meteo,2013-12-04 08:10:00,
2013-12-04 02:15:00,29.0,26.0,29.86,East,84,5.0,9.0,89,0.00,,,0.01,Meteo,2013-12-04 08:15:00,
2013-12-04 02:20:00,29.0,26.0,29.86,ENE,71,4.0,5.0,88,0.00,,,0.01,Meteo,2013-12-04 08:20:00,
2013-12-04 02:25:00,29.0,26.0,29.86,ENE,71,6.0,9.0,88,0.00,,,0.01,Meteo,2013-12-04 08:25:00,
2013-12-04 02:30:00,29.0,26.0,29.85,ENE,67,4.0,7.0,88,0.00,,,0.01,Meteo,2013-12-04 08:30:00,
2013-12-04 02:35:00,29.0,26.0,29.85,ENE,75,6.0,8.0,88,0.00,,,0.01,Meteo,2013-12-04 08:35:00,
2013-12-04 02:40:00,29.0,26.0,29.85,ENE,73,5.0,10.0,88,0.00,,,0.01,Meteo,2013-12-04 08:40:00,
2013-12-04 02:45:00,29.0,26.0,29.85,ENE,70,6.0,12.0,87,0.00,,,0.01,Meteo,2013-12-04 08:45:00,
2013-12-04 02:50:00,29.0,26.0,29.85,ENE,69,4.0,6.0,87,0.00,,,0.01,Meteo,2013-12-04 08:50:00,
2013-12-04 02:55:00,29.0,26.0,29.85,NE,56,5.0,11.0,87,0.00,,,0.01,Meteo,2013-12-04 08:55:00,
2013-12-04 03:00:00,29.0,26.0,29.84,ENE,71,4.0,7.0,87,0.00,,,0.01,Meteo,2013-12-04 09:00:00,
2013-12-04 03:05:00,29.0,26.0,29.84,ENE,69,3.0,5.0,87,0.00,,,0.01,Meteo,2013-12-04 09:05:00,
2013-12-04 03:10:00,29.0,26.0,29.84,ENE,73,5.0,10.0,87,0.00,,,0.01,Meteo,2013-12-04 09:10:00,
2013-12-04 03:15:00,29.0,26.0,29.84,ENE,68,3.0,5.0,87,0.00,,,0.01,Meteo,2013-12-04 09:15:00,
2013-12-04 03:20:00,29.0,26.0,29.84,ENE,71,5.0,7.0,87,0.00,,,0.01,Meteo,2013-12-04 09:20:00,
2013-12-04 03:25:00,29.0,26.0,29.84,ENE,61,3.0,5.0,87,0.00,,,0.01,Meteo,2013-12-04 09:25:00,
2013-12-04 03:30:00,29.0,25.0,29.84,ENE,69,3.0,4.0,86,0.00,,,0.01,Meteo,2013-12-04 09:30:00,
2013-12-04 03:35:00,29.0,26.0,29.83,ENE,78,4.0,7.0,87,0.00,,,0.01,Meteo,2013-12-04 09:35:00,
2013-12-04 03:40:00,29.0,26.0,29.83,East,81,4.0,6.0,87,0.00,,,0.01,Meteo,2013-12-04 09:40:00,
2013-12-04 03:45:00,29.0,25.0,29.83,ENE,58,3.0,5.0,86,0.00,,,0.01,Meteo,2013-12-04 09:45:00,
2013-12-04 03:50:00,29.0,25.0,29.83,ENE,63,5.0,8.0,86,0.00,,,0.01,Meteo,2013-12-04 09:50:00,
2013-12-04 03:55:00,29.0,25.0,29.83,East,79,4.0,6.0,86,0.00,,,0.01,Meteo,2013-12-04 09:55:00,
2013-12-04 04:00:00,29.0,25.0,29.83,ENE,68,5.0,7.0,86,0.00,,,0.01,Meteo,2013-12-04 10:00:00,
2013-12-04 04:06:00,29.0,25.0,29.82,ENE,75,4.0,8.0,86,0.00,,,0.01,Meteo,2013-12-04 10:06:00,
2013-12-04 04:11:00,29.0,25.0,29.82,ENE,67,4.0,5.0,86,0.00,,,0.01,Meteo,2013-12-04 10:11:00,
2013-12-04 04:16:00,29.0,25.0,29.82,ENE,77,4.0,7.0,86,0.00,,,0.01,Meteo,2013-12-04 10:16:00,
2013-12-04 04:22:00,30.0,26.0,29.82,ENE,67,5.0,8.0,86,0.00,,,0.01,Meteo,2013-12-04 10:22:00,
2013-12-04 04:27:00,30.0,26.0,29.81,NE,48,3.0,5.0,86,0.00,,,0.01,Meteo,2013-12-04 10:27:00,
2013-12-04 04:32:00,30.0,26.0,29.82,ENE,73,4.0,6.0,86,0.00,,,0.01,Meteo,2013-12-04 10:32:00,
2013-12-04 04:37:00,30.0,26.0,29.81,ENE,75,4.0,7.0,85,0.00,,,0.01,Meteo,2013-12-04 10:37:00,
2013-12-04 04:42:00,30.0,26.0,29.82,ENE,67,5.0,9.0,85,0.00,,,0.01,Meteo,2013-12-04 10:42:00,
2013-12-04 04:47:00,30.0,26.0,29.81,ENE,76,5.0,8.0,85,0.00,,,0.01,Meteo,2013-12-04 10:47:00,
2013-12-04 04:52:00,30.0,26.0,29.81,East,85,4.0,7.0,85,0.00,,,0.01,Meteo,2013-12-04 10:52:00,
2013-12-04 04:57:00,30.0,26.0,29.81,ENE,75,7.0,9.0,85,0.00,,,0.01,Meteo,2013-12-04 10:57:00,
2013-12-04 05:02:00,30.0,26.0,29.80,ENE,68,5.0,7.0,85,0.00,,,0.01,Meteo,2013-12-04 11:02:00,
2013-12-04 05:07:00,30.0,26.0,29.80,ENE,68,3.0,5.0,85,0.00,,,0.01,Meteo,2013-12-04 11:07:00,
2013-12-04 05:12:00,30.0,26.0,29.80,ENE,69,3.0,4.0,85,0.00,,,0.01,Meteo,2013-12-04 11:12:00,
2013-12-04 05:17:00,30.0,26.0,29.79,ENE,70,5.0,7.0,85,0.00,,,0.01,Meteo,2013-12-04 11:17:00,
2013-12-04 05:22:00,30.0,26.0,29.79,East,79,4.0,7.0,85,0.00,,,0.01,Meteo,2013-12-04 11:22:00,
2013-12-04 05:27:00,30.0,26.0,29.79,ENE,74,5.0,7.0,85,0.00,,,0.01,Meteo,2013-12-04 11:27:00,
2013-12-04 05:32:00,30.0,26.0,29.79,East,83,5.0,7.0,85,0.00,,,0.01,Meteo,2013-12-04 11:32:00,
2013-12-04 05:37:00,30.0,26.0,29.79,ENE,76,4.0,7.0,85,0.00,,,0.01,Meteo,2013-12-04 11:37:00,
2013-12-04 05:42:00,30.0,26.0,29.78,East,85,5.0,7.0,86,0.00,,,0.01,Meteo,2013-12-04 11:42:00,
2013-12-04 05:47:00,30.0,26.0,29.78,ENE,60,4.0,7.0,86,0.00,,,0.01,Meteo,2013-12-04 11:47:00,
2013-12-04 05:52:00,30.0,27.0,29.78,ENE,67,4.0,5.0,87,0.00,,,0.01,Meteo,2013-12-04 11:52:00,
2013-12-04 05:57:00,30.0,27.0,29.79,East,88,4.0,6.0,87,0.00,,,0.01,Meteo,2013-12-04 11:57:00,
2013-12-04 06:02:00,30.0,27.0,29.77,ENE,74,6.0,12.0,87,0.00,,,0.01,Meteo,2013-12-04 12:02:00,
2013-12-04 06:07:00,30.0,27.0,29.78,ENE,75,2.0,4.0,88,0.00,,,0.01,Meteo,2013-12-04 12:07:00,
2013-12-04 06:12:00,30.0,27.0,29.79,East,81,3.0,6.0,89,0.00,,,0.01,Meteo,2013-12-04 12:12:00,
2013-12-04 06:17:00,30.0,27.0,29.79,ENE,68,6.0,9.0,89,0.00,,,0.01,Meteo,2013-12-04 12:17:00,
2013-12-04 06:22:00,30.0,27.0,29.79,ENE,74,5.0,10.0,89,0.00,,,0.01,Meteo,2013-12-04 12:22:00,
2013-12-04 06:27:00,30.0,27.0,29.79,ENE,69,5.0,6.0,90,0.00,,,0.01,Meteo,2013-12-04 12:27:00,
2013-12-04 06:32:00,30.0,27.0,29.78,ENE,77,4.0,7.0,90,0.00,,,0.01,Meteo,2013-12-04 12:32:00,
2013-12-04 06:37:00,30.0,27.0,29.78,ENE,65,6.0,11.0,90,0.00,,,0.01,Meteo,2013-12-04 12:37:00,
2013-12-04 06:42:00,30.0,28.0,29.78,NE,35,3.0,5.0,91,0.00,,,0.01,Meteo,2013-12-04 12:42:00,
2013-12-04 06:47:00,30.0,27.0,29.77,ENE,65,5.0,7.0,90,0.00,,,0.01,Meteo,2013-12-04 12:47:00,
2013-12-04 06:52:00,30.0,28.0,29.78,ENE,62,4.0,8.0,91,0.00,,,0.01,Meteo,2013-12-04 12:52:00,
2013-12-04 06:57:00,30.0,28.0,29.78,NE,54,5.0,7.0,91,0.00,,,0.01,Meteo,2013-12-04 12:57:00,
2013-12-04 07:02:00,30.0,28.0,29.77,ENE,63,7.0,13.0,91,0.00,,,0.01,Meteo,2013-12-04 13:02:00,
2013-12-04 07:07:00,30.0,28.0,29.77,ENE,64,6.0,8.0,91,0.00,,,0.01,Meteo,2013-12-04 13:07:00,
2013-12-04 07:12:00,30.0,28.0,29.76,ENE,59,5.0,8.0,91,0.00,,,0.01,Meteo,2013-12-04 13:12:00,
2013-12-04 07:17:00,30.0,28.0,29.76,ENE,73,5.0,7.0,92,0.00,,,0.01,Meteo,2013-12-04 13:17:00,
2013-12-04 07:22:00,30.0,28.0,29.77,ENE,64,6.0,9.0,92,0.00,,,0.01,Meteo,2013-12-04 13:22:00,
2013-12-04 07:28:00,30.0,28.0,29.76,ENE,76,5.0,8.0,92,0.00,,,0.01,Meteo,2013-12-04 13:28:00,
2013-12-04 07:33:00,30.0,28.0,29.76,ENE,76,5.0,8.0,92,0.00,,,0.01,Meteo,2013-12-04 13:33:00,
2013-12-04 07:38:00,30.0,28.0,29.76,ENE,71,6.0,12.0,92,0.00,,,0.01,Meteo,2013-12-04 13:38:00,
2013-12-04 07:43:00,30.0,28.0,29.76,East,82,6.0,11.0,92,0.00,,,0.01,Meteo,2013-12-04 13:43:00,
2013-12-04 07:48:00,30.0,28.0,29.76,ENE,75,5.0,8.0,92,0.00,,,0.01,Meteo,2013-12-04 13:48:00,
2013-12-04 07:53:00,30.0,28.0,29.76,ENE,72,5.0,9.0,93,0.01,,,0.02,Meteo,2013-12-04 13:53:00,
2013-12-04 07:58:00,30.0,28.0,29.76,ENE,63,6.0,11.0,93,0.01,,,0.02,Meteo,2013-12-04 13:58:00,
2013-12-04 08:03:00,30.0,28.0,29.76,ENE,78,6.0,12.0,93,0.01,,,0.02,Meteo,2013-12-04 14:03:00,
2013-12-04 08:08:00,31.0,29.0,29.76,ENE,67,5.0,7.0,93,0.01,,,0.02,Meteo,2013-12-04 14:08:00,
2013-12-04 08:13:00,31.0,29.0,29.76,ENE,70,5.0,9.0,93,0.01,,,0.02,Meteo,2013-12-04 14:13:00,
2013-12-04 08:18:00,31.0,29.0,29.76,ENE,73,5.0,9.0,93,0.01,,,0.02,Meteo,2013-12-04 14:18:00,
2013-12-04 08:23:00,31.0,29.0,29.75,East,85,5.0,8.0,93,0.01,,,0.02,Meteo,2013-12-04 14:23:00,
2013-12-04 08:28:00,31.0,29.0,29.75,ENE,68,5.0,7.0,93,0.01,,,0.02,Meteo,2013-12-04 14:28:00,
2013-12-04 08:33:00,31.0,29.0,29.75,ENE,68,3.0,6.0,93,0.01,,,0.02,Meteo,2013-12-04 14:33:00,
2013-12-04 08:38:00,31.0,29.0,29.75,ENE,68,5.0,9.0,93,0.01,,,0.02,Meteo,2013-12-04 14:38:00,
2013-12-04 08:43:00,31.0,29.0,29.75,ENE,71,5.0,7.0,93,0.01,,,0.02,Meteo,2013-12-04 14:43:00,
2013-12-04 08:48:00,31.0,29.0,29.75,East,80,8.0,10.0,93,0.01,,,0.02,Meteo,2013-12-04 14:48:00,
2013-12-04 08:53:00,31.0,29.0,29.75,East,80,7.0,9.0,93,0.00,,,0.02,Meteo,2013-12-04 14:53:00,
2013-12-04 08:59:00,31.0,29.0,29.74,ENE,72,7.0,9.0,93,0.00,,,0.02,Meteo,2013-12-04 14:59:00,
2013-12-04 09:04:00,31.0,29.0,29.74,ENE,75,5.0,8.0,93,0.01,,,0.03,Meteo,2013-12-04 15:04:00,
2013-12-04 09:09:00,31.0,29.0,29.73,ENE,74,7.0,10.0,94,0.01,,,0.03,Meteo,2013-12-04 15:09:00,
2013-12-04 09:14:00,31.0,29.0,29.73,ENE,65,7.0,13.0,93,0.01,,,0.03,Meteo,2013-12-04 15:14:00,
2013-12-04 09:19:00,31.0,29.0,29.73,ENE,71,6.0,8.0,93,0.01,,,0.03,Meteo,2013-12-04 15:19:00,
2013-12-04 09:24:00,31.0,29.0,29.73,NE,51,4.0,8.0,94,0.01,,,0.03,Meteo,2013-12-04 15:24:00,
2013-12-04 09:29:00,31.0,29.0,29.73,ENE,74,5.0,8.0,93,0.01,,,0.03,Meteo,2013-12-04 15:29:00,
2013-12-04 09:34:00,31.0,29.0,29.73,ENE,75,7.0,8.0,94,0.01,,,0.03,Meteo,2013-12-04 15:34:00,
2013-12-04 09:39:00,31.0,29.0,29.73,East,80,6.0,7.0,94,0.01,,,0.03,Meteo,2013-12-04 15:39:00,
2013-12-04 09:44:00,31.0,29.0,29.73,ENE,77,7.0,12.0,94,0.02,,,0.04,Meteo,2013-12-04 15:44:00,
2013-12-04 09:49:00,31.0,29.0,29.72,NE,55,6.0,10.0,93,0.02,,,0.04,Meteo,2013-12-04 15:49:00,
2013-12-04 09:54:00,31.0,29.0,29.72,ENE,70,6.0,11.0,94,0.02,,,0.04,Meteo,2013-12-04 15:54:00,
2013-12-04 09:59:00,31.0,29.0,29.72,ENE,63,5.0,8.0,94,0.02,,,0.04,Meteo,2013-12-04 15:59:00,
2013-12-04 10:04:00,31.0,29.0,29.72,ENE,59,5.0,9.0,94,0.01,,,0.04,Meteo,2013-12-04 16:04:00,
2013-12-04 10:09:00,31.0,29.0,29.72,ENE,61,4.0,6.0,94,0.01,,,0.04,Meteo,2013-12-04 16:09:00,
2013-12-04 10:14:00,31.0,29.0,29.72,ENE,77,8.0,13.0,94,0.02,,,0.05,Meteo,2013-12-04 16:14:00,
2013-12-04 10:19:00,31.0,29.0,29.72,ENE,70,6.0,9.0,94,0.02,,,0.05,Meteo,2013-12-04 16:19:00,
2013-12-04 10:24:00,31.0,29.0,29.72,ENE,72,6.0,8.0,94,0.02,,,0.05,Meteo,2013-12-04 16:24:00,
2013-12-04 10:29:00,31.0,29.0,29.72,ENE,61,5.0,9.0,94,0.03,,,0.06,Meteo,2013-12-04 16:29:00,
2013-12-04 10:34:00,31.0,29.0,29.71,ENE,61,4.0,7.0,94,0.03,,,0.06,Meteo,2013-12-04 16:34:00,
2013-12-04 10:39:00,31.0,29.0,29.71,ENE,57,4.0,7.0,94,0.03,,,0.06,Meteo,2013-12-04 16:39:00,
2013-12-04 10:44:00,31.0,29.0,29.71,ENE,68,3.0,6.0,94,0.03,,,0.07,Meteo,2013-12-04 16:44:00,
2013-12-04 10:49:00,31.0,29.0,29.70,ENE,71,5.0,8.0,94,0.03,,,0.07,Meteo,2013-12-04 16:49:00,
2013-12-04 10:54:00,31.0,29.0,29.70,ENE,71,5.0,7.0,94,0.03,,,0.07,Meteo,2013-12-04 16:54:00,
2013-12-04 10:59:00,31.0,29.0,29.70,ENE,69,7.0,12.0,94,0.03,,,0.07,Meteo,2013-12-04 16:59:00,
2013-12-04 11:04:00,31.0,29.0,29.69,East,84,6.0,9.0,94,0.04,,,0.08,Meteo,2013-12-04 17:04:00,
2013-12-04 11:09:00,31.0,29.0,29.69,ENE,76,7.0,11.0,94,0.04,,,0.08,Meteo,2013-12-04 17:09:00,
2013-12-04 11:14:00,31.0,29.0,29.68,ENE,75,6.0,11.0,94,0.03,,,0.08,Meteo,2013-12-04 17:14:00,
2013-12-04 11:19:00,31.0,29.0,29.68,ENE,62,5.0,7.0,94,0.03,,,0.08,Meteo,2013-12-04 17:19:00,
2013-12-04 11:24:00,31.0,29.0,29.67,ENE,75,6.0,11.0,94,0.04,,,0.09,Meteo,2013-12-04 17:24:00,
2013-12-04 11:29:00,31.0,29.0,29.67,ENE,76,8.0,11.0,94,0.03,,,0.09,Meteo,2013-12-04 17:29:00,
2013-12-04 11:34:00,31.0,29.0,29.66,ENE,77,5.0,7.0,94,0.03,,,0.09,Meteo,2013-12-04 17:34:00,
2013-12-04 11:39:00,31.0,29.0,29.66,ENE,76,4.0,6.0,94,0.04,,,0.10,Meteo,2013-12-04 17:39:00,
2013-12-04 11:44:00,31.0,29.0,29.65,ENE,67,3.0,5.0,94,0.03,,,0.10,Meteo,2013-12-04 17:44:00,
2013-12-04 11:49:00,31.0,29.0,29.65,ENE,69,6.0,11.0,94,0.03,,,0.10,Meteo,2013-12-04 17:49:00,
2013-12-04 11:54:00,31.0,29.0,29.65,ENE,68,6.0,10.0,94,0.03,,,0.10,Meteo,2013-12-04 17:54:00,
2013-12-04 11:59:00,31.0,29.0,29.64,ENE,67,5.0,9.0,94,0.04,,,0.11,Meteo,2013-12-04 17:59:00,
2013-12-04 12:04:00,31.0,29.0,29.64,ENE,71,3.0,5.0,94,0.03,,,0.11,Meteo,2013-12-04 18:04:00,
2013-12-04 12:09:00,31.0,29.0,29.63,ENE,70,7.0,10.0,94,0.03,,,0.11,Meteo,2013-12-04 18:09:00,
2013-12-04 12:14:00,31.0,29.0,29.63,ENE,74,4.0,6.0,94,0.03,,,0.11,Meteo,2013-12-04 18:14:00,
2013-12-04 12:19:00,31.0,29.0,29.63,ENE,70,4.0,6.0,94,0.03,,,0.11,Meteo,2013-12-04 18:19:00,
2013-12-04 12:24:00,31.0,29.0,29.62,NE,56,5.0,7.0,94,0.02,,,0.11,Meteo,2013-12-04 18:24:00,
2013-12-04 12:29:00,31.0,29.0,29.62,ENE,69,8.0,14.0,94,0.03,,,0.12,Meteo,2013-12-04 18:29:00,
2013-12-04 12:34:00,31.0,29.0,29.61,ENE,75,5.0,7.0,94,0.03,,,0.12,Meteo,2013-12-04 18:34:00,
2013-12-04 12:39:00,31.0,29.0,29.60,ENE,67,5.0,7.0,94,0.02,,,0.12,Meteo,2013-12-04 18:39:00,
2013-12-04 12:44:00,31.0,29.0,29.60,ENE,68,4.0,8.0,94,0.02,,,0.12,Meteo,2013-12-04 18:44:00,
2013-12-04 12:49:00,31.0,29.0,29.59,ENE,72,6.0,10.0,94,0.02,,,0.12,Meteo,2013-12-04 18:49:00,
2013-12-04 12:54:00,31.0,29.0,29.59,ENE,64,6.0,10.0,94,0.03,,,0.13,Meteo,2013-12-04 18:54:00,
2013-12-04 12:59:00,31.0,29.0,29.58,ENE,66,5.0,9.0,94,0.03,,,0.14,Meteo,2013-12-04 18:59:00,
2013-12-04 13:04:00,31.0,29.0,29.57,ENE,69,6.0,11.0,94,0.03,,,0.14,Meteo,2013-12-04 19:04:00,
2013-12-04 13:09:00,31.0,29.0,29.57,NE,50,5.0,10.0,94,0.03,,,0.14,Meteo,2013-12-04 19:09:00,
2013-12-04 13:14:00,31.0,29.0,29.56,ENE,61,5.0,8.0,94,0.04,,,0.15,Meteo,2013-12-04 19:14:00,
2013-12-04 13:19:00,31.0,29.0,29.56,ENE,61,6.0,12.0,94,0.04,,,0.15,Meteo,2013-12-04 19:19:00,
2013-12-04 13:24:00,31.0,29.0,29.55,ENE,65,5.0,10.0,94,0.04,,,0.16,Meteo,2013-12-04 19:24:00,
2013-12-04 13:29:00,31.0,29.0,29.55,NE,51,3.0,6.0,94,0.04,,,0.16,Meteo,2013-12-04 19:29:00,
2013-12-04 13:34:00,31.0,29.0,29.54,ENE,70,6.0,9.0,94,0.05,,,0.17,Meteo,2013-12-04 19:34:00,
2013-12-04 13:39:00,31.0,29.0,29.53,ENE,69,5.0,9.0,94,0.06,,,0.18,Meteo,2013-12-04 19:39:00,
2013-12-04 13:44:00,31.0,29.0,29.53,ENE,61,7.0,10.0,94,0.06,,,0.18,Meteo,2013-12-04 19:44:00,
2013-12-04 13:49:00,31.0,29.0,29.53,ENE,67,6.0,9.0,94,0.06,,,0.18,Meteo,2013-12-04 19:49:00,
2013-12-04 13:54:00,31.0,29.0,29.52,ENE,63,4.0,6.0,94,0.06,,,0.19,Meteo,2013-12-04 19:54:00,
2013-12-04 13:59:00,31.0,29.0,29.52,ENE,68,6.0,8.0,94,0.06,,,0.20,Meteo,2013-12-04 19:59:00,
2013-12-04 14:04:00,31.0,29.0,29.52,NE,41,3.0,4.0,94,0.06,,,0.20,Meteo,2013-12-04 20:04:00,
2013-12-04 14:09:00,31.0,29.0,29.51,ENE,69,4.0,7.0,94,0.06,,,0.21,Meteo,2013-12-04 20:09:00,
2013-12-04 14:14:00,31.0,29.0,29.51,ENE,62,4.0,7.0,94,0.06,,,0.21,Meteo,2013-12-04 20:14:00,
2013-12-04 14:19:00,31.0,29.0,29.51,NE,43,4.0,6.0,94,0.07,,,0.22,Meteo,2013-12-04 20:19:00,
2013-12-04 14:24:00,31.0,29.0,29.51,ENE,58,5.0,9.0,94,0.06,,,0.22,Meteo,2013-12-04 20:24:00,
2013-12-04 14:29:00,31.0,29.0,29.50,ENE,66,4.0,6.0,94,0.07,,,0.23,Meteo,2013-12-04 20:29:00,
2013-12-04 14:34:00,31.0,29.0,29.50,NE,54,3.0,5.0,94,0.07,,,0.24,Meteo,2013-12-04 20:34:00,
2013-12-04 14:39:00,31.0,29.0,29.50,NE,50,3.0,6.0,94,0.06,,,0.24,Meteo,2013-12-04 20:39:00,
2013-12-04 14:44:00,31.0,29.0,29.49,ENE,69,4.0,6.0,94,0.07,,,0.25,Meteo,2013-12-04 20:44:00,
2013-12-04 14:49:00,31.0,29.0,29.49,NE,54,5.0,9.0,94,0.07,,,0.25,Meteo,2013-12-04 20:49:00,
2013-12-04 14:54:00,31.0,29.0,29.49,NE,46,4.0,6.0,94,0.06,,,0.25,Meteo,2013-12-04 20:54:00,
2013-12-04 14:59:00,31.0,29.0,29.48,NE,54,4.0,7.0,94,0.06,,,0.26,Meteo,2013-12-04 20:59:00,
2013-12-04 15:04:00,31.0,29.0,29.48,NE,53,5.0,7.0,94,0.07,,,0.27,Meteo,2013-12-04 21:04:00,
2013-12-04 15:09:00,31.0,29.0,29.48,NE,51,3.0,5.0,94,0.06,,,0.27,Meteo,2013-12-04 21:09:00,
2013-12-04 15:14:00,31.0,29.0,29.48,NE,55,4.0,6.0,94,0.07,,,0.28,Meteo,2013-12-04 21:14:00,
2013-12-04 15:19:00,31.0,29.0,29.47,NE,54,3.0,4.0,94,0.06,,,0.28,Meteo,2013-12-04 21:19:00,
2013-12-04 15:24:00,31.0,29.0,29.47,ENE,59,3.0,6.0,94,0.07,,,0.29,Meteo,2013-12-04 21:24:00,
2013-12-04 15:29:00,31.0,29.0,29.47,NE,47,6.0,8.0,94,0.07,,,0.30,Meteo,2013-12-04 21:29:00,
2013-12-04 15:34:00,31.0,29.0,29.46,NE,56,4.0,5.0,94,0.06,,,0.30,Meteo,2013-12-04 21:34:00,
2013-12-04 15:39:00,32.0,30.0,29.46,NE,52,1.0,3.0,94,0.07,,,0.31,Meteo,2013-12-04 21:39:00,
2013-12-04 15:44:00,32.0,30.0,29.46,ENE,62,5.0,7.0,94,0.07,,,0.32,Meteo,2013-12-04 21:44:00,
2013-12-04 15:49:00,32.0,30.0,29.46,NE,54,3.0,5.0,94,0.07,,,0.32,Meteo,2013-12-04 21:49:00,
2013-12-04 15:54:00,32.0,30.0,29.45,NE,53,4.0,6.0,94,0.08,,,0.33,Meteo,2013-12-04 21:54:00,
2013-12-04 15:59:00,32.0,31.0,29.45,ENE,68,4.0,5.0,95,0.07,,,0.33,Meteo,2013-12-04 21:59:00,
2013-12-04 16:04:00,32.0,30.0,29.45,NE,54,4.0,6.0,94,0.07,,,0.34,Meteo,2013-12-04 22:04:00,
2013-12-04 16:09:00,32.0,31.0,29.45,NE,54,4.0,6.0,95,0.07,,,0.34,Meteo,2013-12-04 22:09:00,
2013-12-04 16:14:00,32.0,31.0,29.44,ENE,64,4.0,7.0,95,0.07,,,0.35,Meteo,2013-12-04 22:14:00,
2013-12-04 16:19:00,32.0,30.0,29.45,NE,34,2.0,3.0,94,0.08,,,0.36,Meteo,2013-12-04 22:19:00,
2013-12-04 16:24:00,32.0,30.0,29.45,ENE,58,2.0,3.0,94,0.07,,,0.36,Meteo,2013-12-04 22:24:00,
2013-12-04 16:29:00,32.0,31.0,29.45,NE,41,1.0,2.0,95,0.07,,,0.37,Meteo,2013-12-04 22:29:00,
2013-12-04 16:34:00,32.0,30.0,29.45,NE,44,3.0,6.0,94,0.07,,,0.37,Meteo,2013-12-04 22:34:00,
2013-12-04 16:39:00,32.0,31.0,29.45,NE,43,2.0,3.0,95,0.07,,,0.38,Meteo,2013-12-04 22:39:00,
2013-12-04 16:44:00,32.0,31.0,29.45,NE,37,2.0,3.0,95,0.06,,,0.38,Meteo,2013-12-04 22:44:00,
2013-12-04 16:49:00,32.0,31.0,29.44,NE,38,2.0,4.0,95,0.07,,,0.39,Meteo,2013-12-04 22:49:00,
2013-12-04 16:54:00,32.0,31.0,29.44,NE,50,1.0,2.0,95,0.06,,,0.39,Meteo,2013-12-04 22:54:00,
2013-12-04 16:59:00,32.0,31.0,29.44,NE,38,2.0,4.0,95,0.06,,,0.39,Meteo,2013-12-04 22:59:00,
2013-12-04 17:04:00,32.0,30.0,29.44,NE,44,4.0,6.0,94,0.06,,,0.40,Meteo,2013-12-04 23:04:00,
2013-12-04 17:09:00,32.0,31.0,29.43,NE,51,3.0,5.0,95,0.06,,,0.40,Meteo,2013-12-04 23:09:00,
2013-12-04 17:14:00,32.0,31.0,29.43,ENE,63,5.0,7.0,95,0.05,,,0.40,Meteo,2013-12-04 23:14:00,
2013-12-04 17:19:00,32.0,30.0,29.42,ENE,67,4.0,5.0,94,0.05,,,0.41,Meteo,2013-12-04 23:19:00,
2013-12-04 17:24:00,32.0,31.0,29.42,ENE,62,2.0,4.0,95,0.05,,,0.41,Meteo,2013-12-04 23:24:00,
2013-12-04 17:29:00,32.0,31.0,29.42,ENE,60,3.0,4.0,95,0.04,,,0.41,Meteo,2013-12-04 23:29:00,
2013-12-04 17:34:00,32.0,31.0,29.42,NE,47,2.0,3.0,95,0.05,,,0.42,Meteo,2013-12-04 23:34:00,
2013-12-04 17:39:00,32.0,30.0,29.42,ENE,68,3.0,4.0,94,0.04,,,0.42,Meteo,2013-12-04 23:39:00,
2013-12-04 17:44:00,32.0,31.0,29.41,ENE,63,3.0,4.0,95,0.05,,,0.43,Meteo,2013-12-04 23:44:00,
2013-12-04 17:49:00,32.0,31.0,29.40,ENE,70,5.0,10.0,95,0.04,,,0.43,Meteo,2013-12-04 23:49:00,
2013-12-04 17:54:00,32.0,30.0,29.40,ENE,62,2.0,3.0,94,0.04,,,0.43,Meteo,2013-12-04 23:54:00,
2013-12-04 17:59:00,32.0,31.0,29.40,ENE,74,3.0,7.0,95,0.04,,,0.43,Meteo,2013-12-04 23:59:00,
2013-12-04 18:04:00,32.0,31.0,29.39,ENE,59,2.0,3.0,95,0.04,,,0.00,Meteo,2013-12-05 00:04:00,
2013-12-04 18:09:00,32.0,31.0,29.39,ENE,62,2.0,3.0,95,0.04,,,0.00,Meteo,2013-12-05 00:09:00,
2013-12-04 18:14:00,32.0,31.0,29.39,East,79,2.0,4.0,95,0.04,,,0.00,Meteo,2013-12-05 00:14:00,
2013-12-04 18:19:00,32.0,31.0,29.39,ENE,74,0.0,1.0,95,0.03,,,0.00,Meteo,2013-12-05 00:19:00,
2013-12-04 18:24:00,32.0,31.0,29.39,North,0,0.0,0.0,95,0.03,,,0.00,Meteo,2013-12-05 00:24:00,
2013-12-04 18:29:00,32.0,31.0,29.38,North,0,0.0,0.0,95,0.03,,,0.00,Meteo,2013-12-05 00:29:00,
2013-12-04 18:34:00,32.0,31.0,29.38,North,0,0.0,0.0,95,0.03,,,0.00,Meteo,2013-12-05 00:34:00,
2013-12-04 18:39:00,32.0,31.0,29.38,North,0,0.0,0.0,95,0.03,,,0.00,Meteo,2013-12-05 00:39:00,
2013-12-04 18:44:00,32.0,30.0,29.37,North,0,0.0,0.0,94,0.03,,,0.00,Meteo,2013-12-05 00:44:00,
2013-12-04 18:49:00,32.0,31.0,29.37,North,0,0.0,0.0,95,0.03,,,0.00,Meteo,2013-12-05 00:49:00,
2013-12-04 18:54:00,32.0,31.0,29.37,North,0,0.0,0.0,95,0.03,,,0.00,Meteo,2013-12-05 00:54:00,
2013-12-04 18:59:00,32.0,31.0,29.37,North,0,0.0,0.0,95,0.04,,,0.00,Meteo,2013-12-05 00:59:00,
2013-12-04 19:04:00,32.0,31.0,29.37,North,0,0.0,0.0,95,0.04,,,0.00,Meteo,2013-12-05 01:04:00,
2013-12-04 19:09:00,32.0,31.0,29.36,North,0,0.0,0.0,95,0.04,,,0.00,Meteo,2013-12-05 01:09:00,
2013-12-04 19:14:00,32.0,31.0,29.36,North,0,0.0,0.0,95,0.05,,,0.00,Meteo,2013-12-05 01:14:00,
2013-12-04 19:19:00,32.0,31.0,29.35,North,0,0.0,0.0,95,0.06,,,0.00,Meteo,2013-12-05 01:19:00,
2013-12-04 19:24:00,32.0,31.0,29.35,North,0,0.0,0.0,95,0.06,,,0.00,Meteo,2013-12-05 01:24:00,
2013-12-04 19:29:00,32.0,31.0,29.34,North,0,0.0,0.0,95,0.07,,,0.00,Meteo,2013-12-05 01:29:00,
2013-12-04 19:34:00,32.0,31.0,29.34,North,0,0.0,0.0,95,0.06,,,0.00,Meteo,2013-12-05 01:34:00,
2013-12-04 19:39:00,32.0,31.0,29.34,North,0,0.0,0.0,95,0.06,,,0.00,Meteo,2013-12-05 01:39:00,
2013-12-04 19:44:00,32.0,31.0,29.33,North,0,0.0,0.0,95,0.05,,,0.00,Meteo,2013-12-05 01:44:00,
2013-12-04 19:49:00,32.0,31.0,29.32,North,0,0.0,0.0,95,0.06,,,0.00,Meteo,2013-12-05 01:49:00,
2013-12-04 19:54:00,32.0,31.0,29.32,North,0,0.0,0.0,95,0.06,,,0.00,Meteo,2013-12-05 01:54:00,
2013-12-04 19:59:00,32.0,31.0,29.32,North,0,0.0,0.0,95,0.05,,,0.00,Meteo,2013-12-05 01:59:00,
2013-12-04 20:04:00,32.0,31.0,29.32,North,0,0.0,0.0,95,0.04,,,0.00,Meteo,2013-12-05 02:04:00,
2013-12-04 20:10:00,32.0,31.0,29.32,North,0,0.0,0.0,95,0.03,,,0.00,Meteo,2013-12-05 02:10:00,
2013-12-04 20:15:00,32.0,31.0,29.31,North,0,0.0,0.0,95,0.03,,,0.00,Meteo,2013-12-05 02:15:00,
2013-12-04 20:20:00,32.0,31.0,29.31,North,0,0.0,0.0,95,0.02,,,0.00,Meteo,2013-12-05 02:20:00,
2013-12-04 20:25:00,32.0,31.0,29.31,North,0,0.0,0.0,95,0.02,,,0.00,Meteo,2013-12-05 02:25:00,
2013-12-04 20:30:00,32.0,31.0,29.31,North,0,0.0,0.0,95,0.01,,,0.00,Meteo,2013-12-05 02:30:00,
2013-12-04 20:35:00,32.0,31.0,29.32,North,0,0.0,0.0,95,0.01,,,0.00,Meteo,2013-12-05 02:35:00,
2013-12-04 20:40:00,32.0,31.0,29.31,North,0,0.0,0.0,95,0.01,,,0.00,Meteo,2013-12-05 02:40:00,
2013-12-04 20:45:00,32.0,31.0,29.31,North,0,0.0,0.0,95,0.00,,,0.00,Meteo,2013-12-05 02:45:00,
2013-12-04 20:50:00,32.0,31.0,29.32,North,0,0.0,0.0,95,0.00,,,0.00,Meteo,2013-12-05 02:50:00,
2013-12-04 20:55:00,32.0,31.0,29.33,North,0,0.0,0.0,95,0.00,,,0.00,Meteo,2013-12-05 02:55:00,
2013-12-04 21:00:00,32.0,31.0,29.33,North,0,0.0,0.0,95,0.00,,,0.00,Meteo,2013-12-05 03:00:00,
2013-12-04 21:05:00,32.0,31.0,29.33,North,0,0.0,0.0,95,0.00,,,0.00,Meteo,2013-12-05 03:05:00,
2013-12-04 21:10:00,32.0,31.0,29.32,North,0,0.0,0.0,95,0.00,,,0.00,Meteo,2013-12-05 03:10:00,
2013-12-04 21:15:00,32.0,31.0,29.31,North,0,0.0,0.0,95,0.00,,,0.00,Meteo,2013-12-05 03:15:00,
2013-12-04 21:20:00,32.0,31.0,29.32,North,0,0.0,0.0,95,0.00,,,0.00,Meteo,2013-12-05 03:20:00,
2013-12-04 21:25:00,32.0,31.0,29.33,North,0,0.0,0.0,95,0.00,,,0.00,Meteo,2013-12-05 03:25:00,
2013-12-04 21:30:00,32.0,31.0,29.32,North,0,0.0,0.0,95,0.00,,,0.00,Meteo,2013-12-05 03:30:00,
2013-12-04 21:35:00,32.0,31.0,29.32,North,0,0.0,0.0,95,0.00,,,0.00,Meteo,2013-12-05 03:35:00,
2013-12-04 21:40:00,32.0,31.0,29.32,North,0,0.0,0.0,95,0.00,,,0.00,Meteo,2013-12-05 03:40:00,
2013-12-04 21:46:00,32.0,31.0,29.32,North,0,0.0,0.0,95,0.00,,,0.00,Meteo,2013-12-05 03:46:00,
2013-12-04 21:51:00,32.0,31.0,29.33,North,0,0.0,0.0,95,0.00,,,0.00,Meteo,2013-12-05 03:51:00,
2013-12-04 21:56:00,32.0,31.0,29.33,North,0,0.0,0.0,95,0.00,,,0.00,Meteo,2013-12-05 03:56:00,
2013-12-04 22:01:00,32.0,31.0,29.32,North,0,0.0,0.0,95,0.00,,,0.00,Meteo,2013-12-05 04:01:00,
2013-12-04 22:06:00,32.0,31.0,29.33,North,0,0.0,0.0,95,0.00,,,0.00,Meteo,2013-12-05 04:06:00,
2013-12-04 22:11:00,32.0,31.0,29.33,North,0,0.0,0.0,95,0.00,,,0.00,Meteo,2013-12-05 04:11:00,
2013-12-04 22:16:00,32.0,31.0,29.33,North,0,0.0,0.0,95,0.00,,,0.00,Meteo,2013-12-05 04:16:00,
2013-12-04 22:21:00,32.0,31.0,29.33,North,0,0.0,0.0,95,0.00,,,0.00,Meteo,2013-12-05 04:21:00,
2013-12-04 22:26:00,32.0,31.0,29.33,North,0,0.0,0.0,95,0.00,,,0.00,Meteo,2013-12-05 04:26:00,
2013-12-04 22:31:00,32.0,31.0,29.33,North,0,0.0,0.0,95,0.00,,,0.00,Meteo,2013-12-05 04:31:00,
2013-12-04 22:36:00,32.0,31.0,29.32,North,0,0.0,0.0,95,0.00,,,0.00,Meteo,2013-12-05 04:36:00,
2013-12-04 22:41:00,32.0,31.0,29.32,North,0,0.0,0.0,95,0.00,,,0.00,Meteo,2013-12-05 04:41:00,
2013-12-04 22:46:00,32.0,31.0,29.32,North,0,0.0,0.0,95,0.00,,,0.00,Meteo,2013-12-05 04:46:00,
2013-12-04 22:51:00,32.0,31.0,29.33,North,0,0.0,0.0,95,0.00,,,0.00,Meteo,2013-12-05 04:51:00,
2013-12-04 22:56:00,32.0,31.0,29.34,North,0,0.0,0.0,95,0.00,,,0.00,Meteo,2013-12-05 04:56:00,
2013-12-04 23:01:00,32.0,31.0,29.34,North,0,0.0,0.0,95,0.00,,,0.00,Meteo,2013-12-05 05:01:00,
2013-12-04 23:02:00,32.0,31.0,29.34,North,0,0.0,0.0,95,0.00,,,0.00,Meteo,2013-12-05 05:02:00,
2013-12-04 23:03:00,32.0,31.0,29.34,North,0,0.0,0.0,95,0.00,,,0.00,Meteo,2013-12-05 05:03:00,
2013-12-04 23:06:00,32.0,31.0,29.34,North,0,0.0,0.0,95,0.00,,,0.00,Meteo,2013-12-05 05:06:00,
2013-12-04 23:07:00,32.0,31.0,29.34,North,0,0.0,0.0,95,0.00,,,0.00,Meteo,2013-12-05 05:07:00,
2013-12-04 23:12:00,32.0,31.0,29.33,North,0,0.0,0.0,95,0.00,,,0.00,Meteo,2013-12-05 05:12:00,
2013-12-04 23:17:00,32.0,31.0,29.33,North,0,0.0,0.0,95,0.00,,,0.00,Meteo,2013-12-05 05:17:00,
2013-12-04 23:23:00,32.0,31.0,29.33,North,0,0.0,0.0,95,0.00,,,0.00,Meteo,2013-12-05 05:23:00,
2013-12-04 23:26:00,32.0,31.0,29.34,North,0,0.0,0.0,95,0.00,,,0.00,Meteo,2013-12-05 05:26:00,
2013-12-04 23:31:00,31.0,30.0,29.35,North,0,0.0,0.0,95,0.00,,,0.00,Meteo,2013-12-05 05:31:00,
2013-12-04 23:36:00,31.0,30.0,29.35,North,0,0.0,0.0,95,0.00,,,0.00,Meteo,2013-12-05 05:36:00,
2013-12-04 23:41:00,31.0,30.0,29.35,North,0,0.0,0.0,95,0.00,,,0.00,Meteo,2013-12-05 05:41:00,
2013-12-04 23:46:00,31.0,30.0,29.35,North,0,0.0,0.0,95,0.00,,,0.00,Meteo,2013-12-05 05:46:00,
2013-12-04 23:51:00,31.0,30.0,29.34,North,0,0.0,0.0,95,0.00,,,0.00,Meteo,2013-12-05 05:51:00,
2013-12-04 23:56:00,31.0,30.0,29.35,North,0,0.0,0.0,95,0.00,,,0.00,Meteo,2013-12-05 05:56:00,